createdAt,value
2023-11-18T00:00:12.510Z,8.57
2023-11-18T00:03:00.015Z,8.98
2023-11-18T00:05:27.123Z,9.13
2023-11-18T00:07:54.390Z,9.80
2023-11-18T00:10:21.329Z,7.45
2023-11-18T00:12:48.565Z,7.28
2023-11-18T00:15:15.530Z,7.47
2023-11-18T00:17:42.880Z,7.17
2023-11-18T00:20:10.865Z,7.28
2023-11-18T00:22:38.289Z,7.03
2023-11-18T00:25:15.650Z,7.63
2023-11-18T00:27:44.699Z,8.38
2023-11-18T00:30:15.015Z,7.37
2023-11-18T00:32:42.829Z,6.82
2023-11-18T00:35:11.895Z,7.57
2023-11-18T00:37:39.441Z,7.68
2023-11-18T00:40:09.091Z,7.95
2023-11-18T00:42:37.103Z,8.40
2023-11-18T00:45:05.556Z,7.20
2023-11-18T00:47:34.542Z,6.65
2023-11-18T00:50:03.538Z,6.72
2023-11-18T00:52:30.995Z,7.20
2023-11-18T00:54:57.969Z,7.23
2023-11-18T00:57:25.305Z,6.70
2023-11-18T00:59:52.280Z,8.02
2023-11-18T01:02:19.634Z,8.63
2023-11-18T01:04:47.316Z,7.85
2023-11-18T01:07:14.699Z,7.30
2023-11-18T01:09:41.809Z,7.75
2023-11-18T01:12:11.259Z,7.63
2023-11-18T01:14:40.244Z,8.18
2023-11-18T01:17:08.679Z,8.93
2023-11-18T01:19:35.781Z,8.80
2023-11-18T01:22:06.865Z,6.95
2023-11-18T01:24:34.860Z,7.43
2023-11-18T01:27:02.692Z,6.18
2023-11-18T01:29:29.630Z,8.05
2023-11-18T01:31:57.663Z,7.10
2023-11-18T01:34:24.753Z,8.48
2023-11-18T01:36:52.033Z,7.80
2023-11-18T01:39:19.582Z,7.05
2023-11-18T01:41:47.335Z,6.88
2023-11-18T01:44:19.009Z,7.50
2023-11-18T01:46:47.185Z,7.28
2023-11-18T01:49:15.720Z,6.40
2023-11-18T01:51:46.751Z,6.35
2023-11-18T01:54:20.503Z,6.55
2023-11-18T01:56:50.299Z,6.63
2023-11-18T01:59:20.860Z,8.30
2023-11-18T02:01:54.768Z,8.93
2023-11-18T02:04:23.009Z,7.00
2023-11-18T02:06:51.281Z,8.00
2023-11-18T02:09:30.343Z,7.73
2023-11-18T02:12:00.763Z,7.63
2023-11-18T02:14:28.659Z,10.70
2023-11-18T02:17:00.306Z,9.18
2023-11-18T02:19:28.264Z,8.20
2023-11-18T02:21:58.058Z,8.33
2023-11-18T02:24:32.068Z,8.75
2023-11-18T02:27:00.041Z,8.60
2023-11-18T02:29:31.278Z,10.15
2023-11-18T02:32:46.364Z,11.13
2023-11-18T02:35:18.081Z,9.40
2023-11-18T02:37:48.520Z,7.30
2023-11-18T02:40:31.880Z,10.50
2023-11-18T02:43:01.887Z,12.48
2023-11-18T02:45:29.685Z,10.52
2023-11-18T02:47:58.781Z,13.00
2023-11-18T02:50:26.680Z,11.75
2023-11-18T02:52:54.370Z,18.83
2023-11-18T02:55:25.715Z,26.40
2023-11-18T02:57:53.088Z,17.73
2023-11-18T03:00:23.245Z,27.37
2023-11-18T03:02:53.554Z,30.20
2023-11-18T03:05:22.072Z,22.00
2023-11-18T03:07:54.979Z,18.80
2023-11-18T03:10:22.941Z,23.40
2023-11-18T03:12:54.963Z,24.80
2023-11-18T03:15:23.531Z,23.38
2023-11-18T03:17:51.933Z,30.38
2023-11-18T03:20:20.880Z,20.23
2023-11-18T03:22:48.925Z,27.33
2023-11-18T03:25:16.786Z,19.33
2023-11-18T03:27:45.701Z,19.55
2023-11-18T03:30:13.608Z,14.75
2023-11-18T03:32:41.466Z,15.02
2023-11-18T03:35:10.587Z,19.15
2023-11-18T03:37:45.165Z,15.83
2023-11-18T03:40:14.321Z,16.27
2023-11-18T03:42:47.777Z,14.98
2023-11-18T03:45:19.080Z,15.73
2023-11-18T03:47:46.521Z,18.33
2023-11-18T03:50:14.896Z,14.27
2023-11-18T03:52:42.780Z,16.42
2023-11-18T03:55:10.198Z,13.48
2023-11-18T03:57:37.520Z,18.45
2023-11-18T04:00:05.127Z,15.63
2023-11-18T04:02:37.701Z,16.30
2023-11-18T04:05:05.550Z,13.95
2023-11-18T04:07:32.975Z,12.25
2023-11-18T04:10:01.543Z,12.80
2023-11-18T04:12:28.922Z,13.90
2023-11-18T04:14:56.004Z,16.07
2023-11-18T04:17:23.355Z,15.02
2023-11-18T04:19:50.336Z,15.00
2023-11-18T04:22:17.581Z,13.38
2023-11-18T04:24:46.434Z,11.43
2023-11-18T04:27:13.717Z,10.07
2023-11-18T04:29:41.587Z,10.43
2023-11-18T04:32:11.986Z,10.38
2023-11-18T04:34:39.109Z,9.98
2023-11-18T04:37:07.213Z,10.45
2023-11-18T04:39:34.711Z,12.73
2023-11-18T04:42:02.686Z,13.63
2023-11-18T04:44:29.650Z,12.40
2023-11-18T04:46:56.913Z,13.63
2023-11-18T04:49:23.958Z,18.73
2023-11-18T04:51:51.307Z,22.13
2023-11-18T04:54:18.382Z,14.25
2023-11-18T04:56:45.626Z,16.00
2023-11-18T04:59:12.586Z,13.80
2023-11-18T05:01:39.998Z,13.60
2023-11-18T05:04:09.556Z,12.43
2023-11-18T05:06:36.944Z,10.88
2023-11-18T05:09:03.912Z,11.10
2023-11-18T05:11:31.188Z,13.02
2023-11-18T05:13:58.363Z,9.80
2023-11-18T05:16:25.717Z,9.90
2023-11-18T05:18:52.665Z,9.07
2023-11-18T05:21:19.967Z,8.98
2023-11-18T05:23:46.845Z,10.23
2023-11-18T05:26:15.893Z,9.90
2023-11-18T05:28:46.426Z,9.30
2023-11-18T05:31:14.115Z,8.38
2023-11-18T05:33:41.031Z,9.70
2023-11-18T05:36:08.794Z,12.25
2023-11-18T05:38:36.490Z,10.07
2023-11-18T05:41:05.319Z,8.33
2023-11-18T05:43:42.395Z,8.57
2023-11-18T05:46:16.136Z,9.70
2023-11-18T05:48:46.505Z,8.98
2023-11-18T05:51:14.424Z,9.38
2023-11-18T05:53:43.364Z,8.23
2023-11-18T05:56:10.692Z,8.23
2023-11-18T05:58:38.648Z,7.45
2023-11-18T06:01:08.966Z,8.43
2023-11-18T06:03:40.152Z,12.10
2023-11-18T06:06:11.696Z,14.43
2023-11-18T06:08:42.561Z,11.98
2023-11-18T06:11:17.527Z,13.70
2023-11-18T06:13:47.923Z,12.70
2023-11-18T06:16:23.739Z,8.48
2023-11-18T06:18:59.082Z,7.70
2023-11-18T06:21:31.837Z,7.47
2023-11-18T06:24:02.528Z,8.63
2023-11-18T06:26:30.115Z,9.45
2023-11-18T06:28:57.801Z,6.35
2023-11-18T06:31:25.751Z,6.60
2023-11-18T06:33:54.083Z,5.75
2023-11-18T06:36:22.854Z,6.47
2023-11-18T06:38:52.324Z,6.70
2023-11-18T06:41:25.218Z,6.30
2023-11-18T06:44:00.830Z,6.27
2023-11-18T06:46:35.868Z,5.78
2023-11-18T06:49:08.570Z,7.47
2023-11-18T06:51:37.721Z,8.48
2023-11-18T06:54:12.900Z,11.57
2023-11-18T06:56:45.166Z,9.97
2023-11-18T06:59:17.319Z,10.23
2023-11-18T07:01:47.507Z,11.05
2023-11-18T07:04:16.389Z,12.77
2023-11-18T07:06:44.810Z,14.30
2023-11-18T07:09:19.354Z,10.50
2023-11-18T07:11:49.484Z,10.23
2023-11-18T07:14:17.303Z,11.82
2023-11-18T07:16:45.934Z,12.35
2023-11-18T07:19:21.888Z,10.82
2023-11-18T07:21:51.155Z,14.07
2023-11-18T07:24:22.070Z,13.25
2023-11-18T07:26:50.409Z,10.75
2023-11-18T07:29:18.153Z,12.23
2023-11-18T07:31:47.214Z,11.45
2023-11-18T07:34:14.225Z,12.53
2023-11-18T07:36:41.560Z,11.52
2023-11-18T07:39:17.408Z,9.45
2023-11-18T07:41:45.766Z,8.57
2023-11-18T07:44:14.446Z,10.73
2023-11-18T07:46:44.457Z,11.20
2023-11-18T07:49:12.529Z,12.80
2023-11-18T07:51:41.915Z,12.15
2023-11-18T07:54:11.488Z,9.30
2023-11-18T07:56:39.314Z,10.15
2023-11-18T07:59:08.140Z,9.30
2023-11-18T08:01:35.865Z,8.85
2023-11-18T08:04:02.825Z,8.68
2023-11-18T08:06:30.092Z,7.90
2023-11-18T08:08:59.047Z,8.02
2023-11-18T08:11:26.747Z,6.83
2023-11-18T08:13:54.856Z,7.82
2023-11-18T08:16:23.639Z,7.82
2023-11-18T08:18:50.600Z,7.70
2023-11-18T08:21:17.796Z,9.15
2023-11-18T08:23:44.726Z,8.17
2023-11-18T08:26:13.331Z,9.88
2023-11-18T08:28:40.253Z,7.93
2023-11-18T08:31:08.259Z,9.68
2023-11-18T08:33:35.254Z,8.57
2023-11-18T08:36:02.980Z,10.30
2023-11-18T08:38:30.891Z,10.30
2023-11-18T08:40:58.223Z,11.73
2023-11-18T08:43:26.843Z,11.30
2023-11-18T08:45:54.166Z,10.90
2023-11-18T08:48:21.208Z,11.57
2023-11-18T08:50:48.739Z,12.13
2023-11-18T08:53:19.819Z,9.98
2023-11-18T08:55:55.710Z,13.13
2023-11-18T08:58:24.115Z,9.73
2023-11-18T09:00:55.796Z,15.27
2023-11-18T09:03:30.278Z,14.38
2023-11-18T09:06:05.631Z,17.80
2023-11-18T09:08:39.486Z,15.93
2023-11-18T09:11:12.157Z,13.65
2023-11-18T09:13:40.189Z,14.83
2023-11-18T09:16:11.468Z,16.67
2023-11-18T09:18:46.327Z,17.60
2023-11-18T09:21:16.933Z,16.05
2023-11-18T09:23:44.618Z,15.23
2023-11-18T09:26:12.079Z,14.63
2023-11-18T09:28:39.661Z,15.48
2023-11-18T09:31:12.616Z,15.63
2023-11-18T09:33:46.289Z,14.82
2023-11-18T09:36:13.855Z,14.30
2023-11-18T09:38:42.412Z,14.17
2023-11-18T09:41:13.941Z,14.10
2023-11-18T09:43:49.352Z,12.88
2023-11-18T09:46:23.322Z,13.10
2023-11-18T09:48:54.757Z,14.75
2023-11-18T09:51:29.416Z,15.43
2023-11-18T09:53:57.266Z,14.30
2023-11-18T09:56:35.536Z,13.32
2023-11-18T09:59:17.549Z,11.27
2023-11-18T10:01:46.186Z,9.57
2023-11-18T10:04:15.242Z,9.60
2023-11-18T10:06:46.022Z,10.10
2023-11-18T10:09:20.560Z,9.32
2023-11-18T10:11:50.932Z,8.55
2023-11-18T10:14:18.373Z,11.05
2023-11-18T10:16:49.483Z,10.97
2023-11-18T10:19:19.453Z,9.35
2023-11-18T10:21:50.726Z,9.68
2023-11-18T10:24:21.269Z,10.15
2023-11-18T10:26:58.089Z,10.70
2023-11-18T10:29:29.713Z,12.03
2023-11-18T10:32:11.366Z,10.15
2023-11-18T10:34:38.978Z,10.07
2023-11-18T10:37:07.989Z,9.80
2023-11-18T10:39:36.647Z,10.05
2023-11-18T10:42:04.854Z,11.93
2023-11-18T10:44:32.388Z,13.73
2023-11-18T10:47:00.693Z,9.77
2023-11-18T10:49:29.152Z,8.85
2023-11-18T10:51:58.321Z,9.80
2023-11-18T10:54:27.844Z,9.77
2023-11-18T10:56:58.231Z,10.60
2023-11-18T10:59:26.585Z,23.35
2023-11-18T11:01:54.004Z,15.77
2023-11-18T11:04:23.857Z,11.32
2023-11-18T11:06:55.481Z,11.30
2023-11-18T11:09:29.002Z,13.23
2023-11-18T11:12:08.052Z,15.68
2023-11-18T11:14:42.623Z,15.05
2023-11-18T11:17:19.709Z,14.35
2023-11-18T11:19:58.524Z,26.90
2023-11-18T11:22:34.198Z,17.63
2023-11-18T11:25:11.161Z,12.48
2023-11-18T11:28:03.064Z,12.48
2023-11-18T11:30:33.218Z,12.00
2023-11-18T11:33:20.558Z,9.97
2023-11-18T11:35:58.595Z,31.13
2023-11-18T11:38:28.248Z,100.82
2023-11-18T11:40:56.530Z,82.75
2023-11-18T11:43:23.930Z,71.47
2023-11-18T11:45:56.845Z,88.73
2023-11-18T11:48:29.130Z,80.07
2023-11-18T11:51:27.984Z,146.77
2023-11-18T11:54:16.086Z,144.27
2023-11-18T11:56:44.793Z,76.55
2023-11-18T11:59:12.896Z,51.07
2023-11-18T12:01:46.488Z,40.25
2023-11-18T12:04:22.705Z,36.47
2023-11-18T12:06:49.764Z,29.27
2023-11-18T12:09:23.280Z,32.63
2023-11-18T12:11:51.214Z,35.60
2023-11-18T12:14:34.339Z,24.63
2023-11-18T12:17:11.535Z,26.70
2023-11-18T12:19:47.875Z,24.02
2023-11-18T12:22:26.256Z,21.10
2023-11-18T12:24:59.670Z,20.70
2023-11-18T12:27:42.491Z,20.65
2023-11-18T12:30:16.581Z,17.50
2023-11-18T12:33:07.222Z,14.75
2023-11-18T12:35:38.314Z,14.27
2023-11-18T12:38:35.659Z,12.10
2023-11-18T12:41:06.473Z,15.65
2023-11-18T12:43:49.187Z,17.45
2023-11-18T12:46:16.579Z,13.00
2023-11-18T12:48:45.515Z,15.60
2023-11-18T12:51:20.737Z,17.30
2023-11-18T12:53:51.656Z,19.35
2023-11-18T12:56:20.975Z,18.38
2023-11-18T12:58:48.798Z,13.90
2023-11-18T13:01:17.448Z,15.15
2023-11-18T13:03:45.600Z,12.33
2023-11-18T13:06:13.361Z,13.52
2023-11-18T13:08:40.867Z,12.10
2023-11-18T13:11:13.662Z,11.93
2023-11-18T13:13:40.910Z,12.10
2023-11-18T13:16:10.343Z,9.27
2023-11-18T13:18:50.685Z,12.68
2023-11-18T13:21:19.707Z,13.07
2023-11-18T13:23:56.887Z,13.95
2023-11-18T13:26:25.750Z,14.40
2023-11-18T13:28:52.969Z,12.60
2023-11-18T13:31:20.576Z,13.95
2023-11-18T13:33:50.807Z,10.55
2023-11-18T13:36:18.632Z,12.55
2023-11-18T13:38:50.653Z,15.23
2023-11-18T13:41:32.438Z,15.03
2023-11-18T13:44:00.260Z,16.95
2023-11-18T13:46:27.678Z,15.27
2023-11-18T13:48:55.130Z,14.73
2023-11-18T13:51:23.040Z,14.15
2023-11-18T13:53:50.013Z,14.37
2023-11-18T13:56:20.409Z,15.13
2023-11-18T13:58:48.045Z,24.90
2023-11-18T14:01:16.321Z,23.35
2023-11-18T14:03:44.997Z,25.65
2023-11-18T14:06:12.446Z,18.53
2023-11-18T14:08:40.365Z,21.27
2023-11-18T14:11:15.411Z,19.83
2023-11-18T14:13:45.290Z,16.40
2023-11-18T14:16:14.263Z,17.08
2023-11-18T14:18:43.360Z,19.47
2023-11-18T14:21:11.173Z,16.40
2023-11-18T14:23:39.281Z,27.13
2023-11-18T14:26:09.097Z,16.50
2023-11-18T14:28:36.446Z,17.13
2023-11-18T14:31:09.341Z,17.90
2023-11-18T14:33:36.332Z,15.88
2023-11-18T14:36:06.658Z,17.42
2023-11-18T14:38:35.591Z,15.43
2023-11-18T14:41:04.171Z,14.30
2023-11-18T14:43:31.667Z,13.83
2023-11-18T14:45:59.236Z,16.80
2023-11-18T14:48:26.247Z,17.92
2023-11-18T14:50:53.604Z,21.52
2023-11-18T14:53:21.112Z,16.08
2023-11-18T14:55:48.408Z,12.27
2023-11-18T14:58:15.391Z,11.18
2023-11-18T15:00:43.856Z,12.43
2023-11-18T15:03:11.662Z,13.75
2023-11-18T15:05:39.799Z,13.60
2023-11-18T15:08:10.900Z,15.23
2023-11-18T15:10:38.706Z,12.90
2023-11-18T15:13:05.607Z,10.93
2023-11-18T15:15:33.792Z,11.90
2023-11-18T15:18:26.036Z,18.17
2023-11-18T15:20:53.399Z,13.03
2023-11-18T15:23:23.377Z,11.15
2023-11-18T15:25:53.442Z,11.73
2023-11-18T15:28:21.030Z,10.50
2023-11-18T15:30:48.300Z,11.77
2023-11-18T15:33:16.070Z,11.27
2023-11-18T15:35:43.485Z,10.80
2023-11-18T15:38:18.621Z,12.23
2023-11-18T15:40:46.759Z,10.88
2023-11-18T15:43:13.870Z,11.05
2023-11-18T15:45:41.191Z,10.63
2023-11-18T15:48:11.403Z,14.60
2023-11-18T15:50:39.110Z,11.30
2023-11-18T15:53:09.428Z,15.18
2023-11-18T15:55:40.089Z,12.32
2023-11-18T15:58:07.040Z,12.50
2023-11-18T16:00:38.341Z,10.60
2023-11-18T16:03:10.203Z,9.30
2023-11-18T16:05:37.983Z,11.23
2023-11-18T16:08:08.964Z,9.27
2023-11-18T16:10:38.893Z,11.57
2023-11-18T16:13:05.943Z,16.25
2023-11-18T16:15:34.196Z,14.60
2023-11-18T16:18:02.118Z,13.52
2023-11-18T16:20:35.080Z,11.73
2023-11-18T16:23:06.727Z,13.03
2023-11-18T16:25:37.669Z,23.70
2023-11-18T16:28:05.744Z,20.88
2023-11-18T16:30:34.446Z,22.95
2023-11-18T16:33:02.962Z,20.77
2023-11-18T16:35:31.333Z,16.13
2023-11-18T16:38:01.731Z,16.23
2023-11-18T16:40:30.142Z,11.82
2023-11-18T16:42:57.887Z,12.10
2023-11-18T16:45:26.346Z,11.02
2023-11-18T16:47:55.386Z,19.60
2023-11-18T16:50:25.159Z,22.00
2023-11-18T16:52:52.591Z,31.10
2023-11-18T16:55:22.661Z,20.08
2023-11-18T16:57:53.854Z,18.27
2023-11-18T17:00:27.019Z,19.47
2023-11-18T17:02:58.107Z,23.38
2023-11-18T17:05:31.781Z,19.65
2023-11-18T17:08:00.787Z,15.48
2023-11-18T17:10:28.873Z,13.68
2023-11-18T17:12:55.931Z,17.37
2023-11-18T17:15:23.309Z,19.92
2023-11-18T17:17:54.958Z,19.13
2023-11-18T17:20:22.656Z,27.85
2023-11-18T17:22:49.644Z,21.95
2023-11-18T17:25:17.711Z,25.53
2023-11-18T17:27:46.921Z,18.60
2023-11-18T17:30:17.598Z,22.70
2023-11-18T17:32:48.792Z,24.92
2023-11-18T17:35:17.710Z,22.88
2023-11-18T17:37:47.563Z,26.27
2023-11-18T17:40:16.925Z,27.55
2023-11-18T17:42:46.136Z,31.75
2023-11-18T17:45:14.464Z,32.20
2023-11-18T17:47:44.515Z,47.85
2023-11-18T17:50:15.615Z,31.33
2023-11-18T17:52:48.518Z,32.97
2023-11-18T17:55:16.594Z,31.08
2023-11-18T17:57:48.396Z,39.95
2023-11-18T18:00:25.207Z,39.58
2023-11-18T18:02:53.427Z,80.40
2023-11-18T18:05:21.742Z,45.33
2023-11-18T18:07:48.795Z,37.17
2023-11-18T18:10:17.179Z,34.40
2023-11-18T18:12:48.113Z,30.50
2023-11-18T18:15:16.122Z,32.47
2023-11-18T18:17:44.166Z,34.05
2023-11-18T18:20:13.759Z,24.00
2023-11-18T18:22:42.016Z,35.10
2023-11-18T18:25:10.242Z,32.33
2023-11-18T18:27:37.287Z,34.63
2023-11-18T18:30:05.971Z,30.85
2023-11-18T18:32:33.088Z,27.10
2023-11-18T18:35:00.513Z,28.30
2023-11-18T18:37:28.013Z,19.63
2023-11-18T18:39:56.870Z,20.10
2023-11-18T18:42:24.396Z,19.70
2023-11-18T18:44:51.939Z,22.67
2023-11-18T18:47:22.303Z,36.83
2023-11-18T18:49:52.505Z,40.67
2023-11-18T18:52:19.661Z,59.40
2023-11-18T18:54:47.976Z,53.83
2023-11-18T18:57:14.958Z,38.63
2023-11-18T18:59:43.971Z,30.13
2023-11-18T19:02:11.360Z,25.83
2023-11-18T19:04:38.791Z,32.00
2023-11-18T19:07:05.711Z,30.05
2023-11-18T19:09:33.152Z,21.70
2023-11-18T19:12:00.082Z,20.70
2023-11-18T19:14:27.530Z,17.55
2023-11-18T19:16:54.883Z,21.93
2023-11-18T19:19:22.949Z,24.23
2023-11-18T19:21:52.377Z,25.83
2023-11-18T19:24:20.897Z,25.77
2023-11-18T19:26:49.293Z,40.90
2023-11-18T19:29:16.873Z,33.17
2023-11-18T19:31:43.935Z,29.77
2023-11-18T19:34:11.700Z,33.33
2023-11-18T19:36:38.839Z,29.77
2023-11-18T19:39:08.379Z,27.35
2023-11-18T19:41:35.474Z,30.27
2023-11-18T19:44:03.137Z,28.13
2023-11-18T19:46:30.242Z,30.13
2023-11-18T19:48:58.735Z,23.38
2023-11-18T19:51:25.839Z,22.77
2023-11-18T19:53:53.144Z,21.03
2023-11-18T19:56:20.070Z,26.60
2023-11-18T19:58:47.351Z,31.75
2023-11-18T20:01:19.422Z,30.65
2023-11-18T20:03:47.911Z,43.08
2023-11-18T20:06:15.055Z,37.13
2023-11-18T20:08:42.423Z,32.58
2023-11-18T20:11:11.072Z,26.00
2023-11-18T20:13:39.057Z,26.08
2023-11-18T20:16:08.883Z,21.10
2023-11-18T20:18:36.555Z,22.90
2023-11-18T20:21:04.152Z,25.73
2023-11-18T20:23:31.675Z,25.73
2023-11-18T20:25:58.786Z,34.33
2023-11-18T20:28:27.619Z,26.48
2023-11-18T20:30:57.142Z,19.43
2023-11-18T20:33:24.575Z,19.98
2023-11-18T20:35:51.930Z,12.88
2023-11-18T20:38:19.317Z,15.88
2023-11-18T20:40:47.489Z,14.73
2023-11-18T20:43:15.706Z,14.47
2023-11-18T20:45:42.645Z,13.50
2023-11-18T20:48:10.038Z,12.43
2023-11-18T20:50:37.322Z,11.27
2023-11-18T20:53:05.700Z,14.60
2023-11-18T20:55:32.992Z,12.27
2023-11-18T20:58:00.317Z,13.85
2023-11-18T21:00:27.334Z,13.20
2023-11-18T21:02:54.747Z,12.00
2023-11-18T21:05:22.926Z,12.60
2023-11-18T21:07:50.372Z,28.10
2023-11-18T21:10:17.903Z,44.53
2023-11-18T21:12:45.226Z,20.48
2023-11-18T21:15:13.881Z,15.75
2023-11-18T21:17:41.743Z,11.77
2023-11-18T21:20:16.336Z,26.57
2023-11-18T21:22:44.978Z,12.07
2023-11-18T21:25:20.204Z,12.18
2023-11-18T21:27:47.521Z,10.77
2023-11-18T21:30:15.130Z,17.42
2023-11-18T21:32:46.685Z,12.33
2023-11-18T21:35:16.243Z,40.42
2023-11-18T21:37:43.704Z,24.08
2023-11-18T21:40:14.641Z,15.45
2023-11-18T21:42:42.790Z,9.38
2023-11-18T21:45:11.850Z,10.57
2023-11-18T21:47:40.138Z,10.20
2023-11-18T21:50:07.828Z,15.27
2023-11-18T21:52:35.293Z,36.33
2023-11-18T21:55:05.565Z,19.38
2023-11-18T21:57:39.104Z,11.13
2023-11-18T22:00:13.021Z,12.13
2023-11-18T22:02:41.156Z,11.07
2023-11-18T22:05:11.702Z,9.30
2023-11-18T22:07:39.062Z,9.35
2023-11-18T22:10:18.402Z,11.33
2023-11-18T22:12:46.475Z,12.77
2023-11-18T22:15:18.271Z,19.42
2023-11-18T22:17:46.536Z,17.60
2023-11-18T22:20:16.183Z,14.35
2023-11-18T22:22:43.598Z,17.10
2023-11-18T22:25:10.867Z,12.80
2023-11-18T22:27:41.629Z,21.05
2023-11-18T22:30:09.744Z,16.15
2023-11-18T22:32:39.297Z,12.38
2023-11-18T22:35:10.235Z,14.50
2023-11-18T22:37:37.683Z,16.83
2023-11-18T22:40:16.817Z,17.38
2023-11-18T22:42:48.248Z,20.58
2023-11-18T22:45:21.062Z,14.15
2023-11-18T22:47:54.346Z,15.60
2023-11-18T22:50:25.070Z,11.77
2023-11-18T22:52:54.813Z,16.35
2023-11-18T22:55:23.330Z,21.25
2023-11-18T22:57:50.968Z,23.90
2023-11-18T23:00:33.385Z,12.67
2023-11-18T23:03:01.137Z,13.32
2023-11-18T23:05:28.243Z,12.18
2023-11-18T23:07:58.717Z,11.98
2023-11-18T23:10:26.647Z,11.68
2023-11-18T23:12:56.369Z,13.53
2023-11-18T23:15:25.925Z,11.05
2023-11-18T23:17:53.868Z,13.85
2023-11-18T23:20:22.635Z,14.50
2023-11-18T23:22:51.918Z,15.05
2023-11-18T23:25:20.578Z,11.60
2023-11-18T23:27:48.250Z,11.48
2023-11-18T23:30:15.243Z,14.18
2023-11-18T23:32:43.757Z,11.80
2023-11-18T23:35:10.899Z,9.98
2023-11-18T23:37:38.423Z,11.97
2023-11-18T23:40:12.993Z,15.63
2023-11-18T23:42:41.016Z,16.23
2023-11-18T23:45:08.720Z,12.77
2023-11-18T23:47:35.998Z,15.75
2023-11-18T23:50:02.978Z,12.70
2023-11-18T23:52:30.809Z,14.70
2023-11-18T23:54:57.768Z,20.17
2023-11-18T23:57:25.098Z,14.48
2023-11-18T23:59:54.695Z,14.00
